Time;durP1;ratioP1;P1;durP2;ratioP2;P2;SDS_P1;SDS_P2;PMS_P1;PMS_P2;Temp;Humidity;BMP_temperature;BMP_pressure;BME280_temperature;BME280_humidity;BME280_pressure;Samples;Min_cycle;Max_cycle;Signal;HPM_P1;HPM_P2
2022/07/25 00:01:09;;;;;;;10.43;8.70;;;28.60;56.00;;;28.95;39.53;98399.75;5045414;27;114907;-71
2022/07/25 00:03:36;;;;;;;9.57;8.57;;;28.60;56.10;;;28.91;39.33;98399.06;5047324;27;123266;-71
2022/07/25 00:06:03;;;;;;;14.00;8.90;;;28.60;56.30;;;28.88;39.63;98394.25;5036200;27;123637;-71
2022/07/25 00:08:29;;;;;;;9.07;8.10;;;28.50;56.30;;;28.84;39.56;98387.88;5039900;27;114083;-71
2022/07/25 00:10:56;;;;;;;9.53;8.50;;;28.50;56.50;;;28.80;39.71;98387.16;5034699;27;113757;-71
2022/07/25 00:13:22;;;;;;;10.47;8.40;;;28.50;56.60;;;28.77;39.79;98382.38;5040269;27;124118;-71
2022/07/25 00:15:49;;;;;;;13.20;8.20;;;28.40;56.70;;;28.73;39.95;98376.78;5041484;27;124069;-71
2022/07/25 00:18:15;;;;;;;10.00;8.80;;;28.40;56.80;;;28.72;40.03;98385.75;5047793;27;114221;-71
2022/07/25 00:20:42;;;;;;;10.13;7.27;;;28.40;57.00;;;28.70;40.27;98382.56;5042050;27;113688;-71
2022/07/25 00:23:08;;;;;;;10.17;7.93;;;28.30;57.20;;;28.67;40.20;98387.09;5040480;27;124154;-71
2022/07/25 00:25:35;;;;;;;9.80;7.80;;;28.30;57.30;;;28.65;40.24;98380.25;5044421;27;124299;-71
2022/07/25 00:28:01;;;;;;;11.17;8.33;;;28.30;57.40;;;28.60;40.24;98393.75;5049758;27;113353;-71
2022/07/25 00:30:28;;;;;;;9.13;7.93;;;28.20;57.40;;;28.57;40.52;98379.63;5047043;27;113921;-71
2022/07/25 00:32:54;;;;;;;10.40;7.60;;;28.20;57.60;;;28.54;40.52;98387.00;5042674;27;124231;-71
2022/07/25 00:35:21;;;;;;;9.63;8.53;;;28.20;57.80;;;28.51;40.42;98390.75;5039171;27;123905;-71
2022/07/25 00:37:47;;;;;;;11.43;7.97;;;28.20;57.90;;;28.48;40.38;98390.81;5045393;27;113501;-71
2022/07/25 00:40:15;;;;;;;13.20;9.07;;;28.10;57.90;;;28.43;40.73;98389.31;5048030;27;113749;-71
2022/07/25 00:42:41;;;;;;;9.10;7.50;;;28.10;58.10;;;28.41;40.98;98388.94;5050042;27;124086;-72
2022/07/25 00:45:09;;;;;;;8.37;7.30;;;28.00;58.10;;;28.37;41.04;98391.88;5046402;27;123101;-71
2022/07/25 00:47:36;;;;;;;10.23;8.50;;;27.80;58.80;;;28.33;40.87;98390.34;5041039;27;115247;-71
2022/07/25 00:50:03;;;;;;;9.33;7.43;;;28.00;58.30;;;28.29;40.87;98398.16;5046426;27;114095;-71
2022/07/25 00:52:29;;;;;;;10.10;7.97;;;28.00;58.50;;;28.26;41.18;98388.47;5049217;27;124043;-71
2022/07/25 00:54:56;;;;;;;10.07;8.27;;;27.90;58.60;;;28.24;41.03;98390.13;5042687;27;122678;-71
2022/07/25 00:57:22;;;;;;;10.50;7.70;;;27.90;58.80;;;28.20;41.19;98385.34;5033895;27;113427;-71
2022/07/25 00:59:49;;;;;;;10.43;8.80;;;27.90;58.90;;;28.18;41.09;98396.38;5046591;27;113681;-71
2022/07/25 01:02:16;;;;;;;9.33;8.03;;;27.80;59.00;;;28.15;41.40;98388.72;5047944;27;124501;-71
2022/07/25 01:04:42;;;;;;;9.80;8.67;;;27.80;59.10;;;28.13;41.28;98388.38;5049327;27;123913;-71
2022/07/25 01:07:09;;;;;;;11.03;8.50;;;27.80;59.30;;;28.11;41.61;98388.00;5049503;27;112883;-71
2022/07/25 01:09:36;;;;;;;9.37;8.10;;;27.80;59.50;;;28.08;41.52;98385.25;5036687;27;114275;-71
2022/07/25 01:12:03;;;;;;;12.63;8.50;;;27.70;59.60;;;28.05;41.58;98384.09;5041920;27;124623;-71
2022/07/25 01:14:29;;;;;;;9.70;8.43;;;27.70;59.70;;;28.02;41.93;98382.13;5046206;27;122754;-71
2022/07/25 01:16:56;;;;;;;9.80;8.00;;;27.70;59.90;;;27.98;41.91;98387.09;5031422;27;114172;-71
2022/07/25 01:19:23;;;;;;;9.30;8.10;;;27.60;59.90;;;27.95;42.18;98385.94;5046666;27;113967;-71
2022/07/25 01:21:49;;;;;;;12.17;9.20;;;27.50;60.00;;;27.93;42.18;98377.06;5037124;27;124082;-71
2022/07/25 01:24:16;;;;;;;10.10;8.67;;;27.60;60.10;;;27.90;42.08;98371.47;5042909;27;124166;-71
2022/07/25 01:26:42;;;;;;;13.50;8.00;;;27.50;60.00;;;27.84;41.82;98374.03;5039577;27;114510;-71
2022/07/25 01:29:09;;;;;;;11.33;9.17;;;27.50;60.20;;;27.79;42.20;98365.19;5049284;27;114100;-71
2022/07/25 01:31:35;;;;;;;9.63;8.30;;;27.40;60.30;;;27.73;42.24;98374.22;5046954;27;125856;-71
2022/07/25 01:34:02;;;;;;;10.97;8.87;;;27.40;60.50;;;27.71;42.28;98359.66;5048844;27;124345;-71
2022/07/25 01:36:28;;;;;;;10.50;8.43;;;27.40;60.80;;;27.70;42.44;98363.75;5048771;27;113583;-71
2022/07/25 01:38:55;;;;;;;11.27;8.70;;;27.40;61.00;;;27.68;42.39;98366.22;5048876;27;115077;-71
2022/07/25 01:41:21;;;;;;;11.23;8.53;;;27.30;61.10;;;27.68;42.61;98359.75;5030773;27;124093;-71
2022/07/25 01:43:48;;;;;;;9.20;7.73;;;27.30;61.20;;;27.65;42.86;98355.75;5046872;27;124274;-71
2022/07/25 01:46:14;;;;;;;10.00;7.77;;;27.30;61.40;;;27.63;42.67;98363.09;5040930;27;114545;-72
2022/07/25 01:48:41;;;;;;;9.23;8.30;;;27.30;61.50;;;27.60;43.08;98359.09;5048678;27;113380;-71
2022/07/25 01:51:09;;;;;;;9.30;8.23;;;27.20;61.60;;;27.58;42.77;98355.91;5035262;27;124302;-71
2022/07/25 01:53:35;;;;;;;9.70;8.70;;;27.20;61.90;;;27.57;43.26;98354.31;5038427;27;123845;-71
2022/07/25 01:56:05;;;;;;;11.50;8.80;;;27.20;62.10;;;27.54;43.48;98355.19;5038152;27;114437;-71
2022/07/25 01:58:31;;;;;;;10.53;7.63;;;27.10;62.80;;;27.54;43.40;98358.81;5047547;27;113666;-71
2022/07/25 02:00:58;;;;;;;10.33;8.00;;;27.10;62.30;;;27.52;43.58;98357.66;5048417;27;122096;-71
2022/07/25 02:03:30;;;;;;;9.63;8.63;;;27.10;62.40;;;27.51;43.39;98356.03;5041680;27;124062;-71
2022/07/25 02:06:06;;;;;;;14.10;8.20;;;27.10;62.60;;;27.48;43.54;98351.25;5041106;27;114487;-71
2022/07/25 02:08:33;;;;;;;9.67;8.67;;;27.10;62.70;;;27.47;43.57;98352.50;5048539;27;114424;-71
2022/07/25 02:11:00;;;;;;;9.77;8.43;;;27.10;62.80;;;27.44;43.60;98345.66;5044448;27;124478;-71
2022/07/25 02:13:26;;;;;;;9.40;8.40;;;27.00;62.80;;;27.43;43.69;98344.06;5041084;27;123672;-71
2022/07/25 02:15:53;;;;;;;9.23;8.10;;;27.00;62.90;;;27.42;43.10;98348.13;5033033;27;114342;-71
2022/07/25 02:18:20;;;;;;;9.47;8.07;;;27.00;62.80;;;27.41;43.08;98349.38;5040099;27;114790;-71
2022/07/25 02:20:47;;;;;;;9.70;8.00;;;27.00;63.00;;;27.39;43.62;98343.34;5050374;27;124242;-71
2022/07/25 02:23:13;;;;;;;10.03;9.00;;;26.90;63.00;;;27.36;43.80;98332.84;5045531;27;124206;-71
2022/07/25 02:25:40;;;;;;;12.60;8.20;;;27.00;63.20;;;27.34;43.79;98326.81;5039317;27;115050;-71
2022/07/25 02:28:06;;;;;;;9.70;8.33;;;26.90;63.20;;;27.33;43.59;98330.09;5045271;27;115727;-71
2022/07/25 02:30:33;;;;;;;9.60;8.60;;;26.90;63.20;;;27.30;43.35;98335.41;5031771;27;124075;-71
2022/07/25 02:32:59;;;;;;;9.80;8.10;;;26.90;63.30;;;27.28;43.68;98332.19;5045659;27;123841;-71
2022/07/25 02:35:26;;;;;;;10.33;7.90;;;26.90;63.40;;;27.26;43.70;98319.69;5043968;27;114497;-71
2022/07/25 02:37:52;;;;;;;8.67;7.40;;;26.90;63.40;;;27.24;43.61;98325.00;5044721;27;114285;-71
2022/07/25 02:40:19;;;;;;;9.53;8.63;;;26.90;63.60;;;27.21;43.89;98323.81;5048540;27;123520;-71
2022/07/25 02:42:46;;;;;;;12.03;7.73;;;26.80;63.60;;;27.20;43.42;98321.44;5045071;27;123494;-71
2022/07/25 02:45:12;;;;;;;8.90;7.97;;;26.80;63.60;;;27.18;43.67;98321.06;5041490;27;114470;-71
2022/07/25 02:47:39;;;;;;;9.50;7.93;;;26.80;63.70;;;27.15;43.55;98322.72;5046519;27;113512;-71
2022/07/25 02:50:06;;;;;;;10.90;8.10;;;26.70;63.70;;;27.13;43.85;98319.50;5037794;27;124218;-71
2022/07/25 02:52:32;;;;;;;8.83;7.93;;;26.70;63.80;;;27.11;43.62;98316.34;5048305;27;123460;-71
2022/07/25 02:54:59;;;;;;;9.50;8.30;;;26.70;63.90;;;27.09;43.52;98313.91;5045843;27;114389;-71
2022/07/25 02:57:25;;;;;;;11.40;8.37;;;26.70;64.00;;;27.08;43.63;98315.16;5047761;27;114073;-71
2022/07/25 02:59:52;;;;;;;10.40;8.17;;;26.70;64.10;;;27.07;43.55;98321.25;5044457;27;123629;-71
2022/07/25 03:02:18;;;;;;;9.63;7.67;;;26.70;64.30;;;27.05;44.16;98323.72;5037570;27;123623;-71
2022/07/25 03:04:45;;;;;;;12.70;9.03;;;26.60;64.20;;;27.02;43.71;98318.94;5041100;27;114499;-71
2022/07/25 03:07:12;;;;;;;8.70;7.80;;;26.60;64.30;;;27.01;43.84;98312.47;5045406;27;113926;-71
2022/07/25 03:09:38;;;;;;;9.23;8.30;;;26.60;64.40;;;27.00;43.79;98310.88;5047175;27;124149;-71
2022/07/25 03:12:05;;;;;;;9.20;7.53;;;26.60;64.50;;;26.98;43.85;98319.00;5035420;27;124375;-71
2022/07/25 03:14:31;;;;;;;9.50;8.13;;;26.60;64.60;;;26.97;44.17;98316.59;5041509;27;115122;-71
2022/07/25 03:16:58;;;;;;;10.07;8.30;;;26.60;64.60;;;26.94;44.11;98318.25;5044572;27;115301;-71
2022/07/25 03:19:24;;;;;;;10.80;8.27;;;26.50;64.50;;;26.93;44.09;98315.88;5038869;27;123071;-71
2022/07/25 03:21:51;;;;;;;15.50;8.20;;;26.50;64.50;;;26.90;43.83;98311.09;5046743;27;123056;-71
2022/07/25 03:24:17;;;;;;;14.87;8.47;;;26.50;64.60;;;26.86;43.81;98300.59;5045950;27;113703;-71
2022/07/25 03:26:44;;;;;;;9.63;8.20;;;26.50;64.70;;;26.84;43.88;98308.75;5038647;27;114343;-72
2022/07/25 03:29:11;;;;;;;8.63;7.77;;;26.40;64.70;;;26.82;44.43;98305.53;5040171;27;124124;-69
2022/07/25 03:31:37;;;;;;;12.10;8.70;;;26.40;64.80;;;26.80;44.17;98299.50;5038181;27;123258;-71
2022/07/25 03:34:11;;;;;;;12.07;8.03;;;26.40;64.90;;;26.77;44.16;98293.91;5035957;27;114245;-71
2022/07/25 03:36:38;;;;;;;9.43;7.80;;;26.40;64.90;;;26.73;44.41;98291.13;5043585;27;113887;-72
2022/07/25 03:39:04;;;;;;;9.93;8.20;;;26.40;65.00;;;26.70;43.95;98289.16;5045824;27;124310;-71
2022/07/25 03:41:30;;;;;;;10.10;8.40;;;26.30;64.90;;;26.69;44.54;98293.25;5042456;27;123813;-71
2022/07/25 03:43:57;;;;;;;10.90;8.80;;;26.30;65.00;;;26.67;44.51;98282.31;5032897;27;113990;-71
2022/07/25 03:46:24;;;;;;;8.50;7.60;;;26.30;65.20;;;26.66;44.57;98279.94;5046565;27;113860;-71
2022/07/25 03:48:50;;;;;;;10.47;7.97;;;26.30;65.30;;;26.65;44.63;98284.00;5048380;27;124719;-71
2022/07/25 03:51:17;;;;;;;11.00;9.20;;;26.20;65.30;;;26.63;44.61;98277.97;5037965;27;124034;-71
2022/07/25 03:54:01;;;;;;;8.60;7.50;;;26.20;65.30;;;26.62;44.03;98279.19;5048358;27;114591;-71
2022/07/25 03:56:36;;;;;;;11.43;8.10;;;26.20;65.40;;;26.58;44.34;98272.81;5051031;27;113332;-71
2022/07/25 03:59:04;;;;;;;8.50;7.63;;;26.20;65.40;;;26.58;44.22;98278.47;5048503;27;124095;-71
2022/07/25 04:01:31;;;;;;;8.13;7.33;;;26.20;65.50;;;26.57;44.54;98276.84;5039607;27;123654;-71
2022/07/25 04:03:59;;;;;;;11.90;7.60;;;26.20;65.50;;;26.56;44.05;98275.28;5041331;27;115295;-71
2022/07/25 04:06:26;;;;;;;9.67;8.30;;;26.20;65.50;;;26.56;44.17;98269.59;5043823;27;115515;-69
2022/07/25 04:08:54;;;;;;;8.73;7.83;;;26.10;65.50;;;26.56;44.45;98269.59;5048164;27;124548;-71
2022/07/25 04:11:21;;;;;;;8.93;8.03;;;26.20;65.60;;;26.59;44.45;98268.72;5047788;27;124298;-69
2022/07/25 04:13:48;;;;;;;10.90;8.47;;;26.10;65.60;;;26.62;44.31;98267.84;5049839;27;114464;-70
2022/07/25 04:16:15;;;;;;;10.37;8.10;;;26.10;65.60;;;26.61;44.14;98269.91;5040253;27;114501;-70
2022/07/25 04:18:42;;;;;;;8.53;7.63;;;26.10;65.60;;;26.62;44.38;98262.19;5049327;27;123540;-70
2022/07/25 04:21:09;;;;;;;9.10;8.07;;;26.10;65.60;;;26.61;44.32;98266.28;5004079;28;122828;-70
2022/07/25 04:23:36;;;;;;;9.03;7.70;;;26.20;65.60;;;26.60;43.98;98262.66;5048078;27;114418;-70
2022/07/25 04:26:03;;;;;;;8.77;7.87;;;26.10;65.60;;;26.62;44.49;98265.03;5048285;27;114314;-70
2022/07/25 04:28:31;;;;;;;10.43;8.37;;;26.20;65.90;;;26.64;44.56;98271.06;5050723;27;123974;-70
2022/07/25 04:30:58;;;;;;;9.30;7.63;;;26.20;66.10;;;26.62;44.55;98268.66;5044814;27;123688;-70
2022/07/25 04:33:24;;;;;;;9.67;8.03;;;26.20;66.00;;;26.63;44.17;98263.81;5044861;27;114207;-71
2022/07/25 04:35:51;;;;;;;9.23;7.50;;;26.20;65.90;;;26.63;44.21;98258.16;5037966;27;113764;-70
2022/07/25 04:38:17;;;;;;;11.53;7.97;;;26.20;66.00;;;26.64;44.32;98257.69;5043608;27;123980;-71
2022/07/25 04:40:45;;;;;;;12.40;7.63;;;26.20;66.30;;;26.65;44.47;98258.47;5046648;27;123656;-71
2022/07/25 04:43:12;;;;;;;9.97;8.20;;;26.20;66.20;;;26.64;44.09;98259.72;5035587;27;114002;-71
2022/07/25 04:45:39;;;;;;;10.33;7.90;;;26.20;66.80;;;26.66;44.32;98268.59;5041233;27;113958;-71
2022/07/25 04:48:06;;;;;;;12.63;8.53;;;26.20;66.20;;;26.69;44.28;98266.94;5042571;27;124402;-70
2022/07/25 04:50:32;;;;;;;12.77;8.27;;;26.10;66.20;;;26.70;44.29;98263.66;5038781;27;123710;-70
2022/07/25 04:52:59;;;;;;;9.53;8.10;;;26.20;66.40;;;26.75;44.34;98270.88;5032312;27;115152;-71
2022/07/25 04:55:25;;;;;;;8.77;7.23;;;26.20;66.40;;;26.77;44.14;98269.19;5033053;27;115092;-71
2022/07/25 04:57:52;;;;;;;9.77;7.80;;;26.20;66.30;;;26.78;44.13;98261.47;5036854;27;124065;-70
2022/07/25 05:00:18;;;;;;;10.57;7.47;;;26.30;66.20;;;26.80;43.97;98262.66;5033133;27;124267;-70
2022/07/25 05:02:45;;;;;;;13.33;8.47;;;26.30;66.20;;;26.81;44.09;98264.28;5045775;27;114362;-72
2022/07/25 05:05:11;;;;;;;12.07;8.53;;;26.30;66.20;;;26.83;44.00;98256.09;5037920;27;113282;-71
2022/07/25 05:07:38;;;;;;;15.67;8.07;;;26.30;65.90;;;26.84;43.67;98251.22;5028762;27;123997;-72
2022/07/25 05:10:05;;;;;;;9.67;7.77;;;26.30;65.50;;;26.83;43.49;98250.44;5028438;27;124580;-72
2022/07/25 05:12:31;;;;;;;11.20;7.80;;;26.30;65.20;;;26.85;43.41;98253.66;5041877;27;113467;-72
2022/07/25 05:14:58;;;;;;;8.53;7.63;;;26.40;65.10;;;26.87;43.16;98259.69;5030847;27;113136;-72
2022/07/25 05:17:24;;;;;;;9.30;7.33;;;26.40;65.10;;;26.91;42.77;98253.13;5036191;27;123253;-71
2022/07/25 05:19:51;;;;;;;8.70;7.80;;;26.40;64.90;;;26.91;42.89;98253.13;5028441;27;124034;-71
2022/07/25 05:22:17;;;;;;;7.93;7.10;;;26.40;64.70;;;26.91;42.96;98251.09;5029835;27;115473;-71
2022/07/25 05:24:44;;;;;;;10.13;8.17;;;26.40;64.50;;;26.90;42.87;98255.19;5029734;27;113982;-71
2022/07/25 05:27:10;;;;;;;9.37;8.27;;;26.40;64.40;;;26.91;42.94;98245.44;5028352;27;124560;-69
2022/07/25 05:29:37;;;;;;;10.60;8.33;;;26.40;64.30;;;26.94;43.05;98247.38;5032165;27;124275;-70
2022/07/25 05:32:04;;;;;;;10.40;7.43;;;26.40;64.30;;;26.97;42.51;98245.72;5031684;27;114177;-72
2022/07/25 05:34:30;;;;;;;8.90;7.60;;;26.50;64.40;;;27.02;42.74;98248.03;5039498;27;113944;-72
2022/07/25 05:36:57;;;;;;;11.47;8.60;;;26.50;64.30;;;27.04;42.25;98242.75;5027932;27;124292;-72
2022/07/25 05:39:23;;;;;;;7.63;6.77;;;26.50;64.20;;;27.08;42.20;98246.28;5028786;27;123802;-72
2022/07/25 05:41:50;;;;;;;10.00;7.00;;;26.50;64.00;;;27.10;42.33;98240.97;5031370;27;114669;-72
2022/07/25 05:44:16;;;;;;;9.10;7.40;;;26.50;63.90;;;27.16;42.02;98244.09;5029649;27;115185;-72
2022/07/25 05:46:43;;;;;;;8.90;7.93;;;26.60;64.00;;;27.22;42.11;98239.56;5037823;27;123268;-73
2022/07/25 05:49:09;;;;;;;6.83;6.13;;;26.60;63.90;;;27.28;42.22;98235.75;5030032;27;122925;-72
2022/07/25 05:51:36;;;;;;;13.53;7.70;;;26.60;63.90;;;27.34;41.80;98230.34;5048416;27;114362;-72
2022/07/25 05:54:03;;;;;;;8.70;7.60;;;26.70;63.70;;;27.38;41.74;98228.25;5031136;27;113529;-72
2022/07/25 05:56:29;;;;;;;9.17;7.57;;;26.80;63.60;;;27.46;41.97;98232.53;5046301;27;124420;-71
2022/07/25 05:58:56;;;;;;;9.73;8.73;;;26.90;63.70;;;27.53;41.64;98231.53;5047780;27;122949;-72
2022/07/25 06:01:22;;;;;;;9.30;7.73;;;26.90;63.40;;;27.59;41.54;98228.97;5041317;27;114615;-71
2022/07/25 06:03:49;;;;;;;9.63;8.20;;;27.00;63.90;;;27.64;41.28;98217.91;5027867;27;114061;-71
2022/07/25 06:06:15;;;;;;;8.47;7.63;;;27.00;63.00;;;27.72;41.13;98218.53;5038794;27;123887;-71
2022/07/25 06:08:42;;;;;;;10.23;8.20;;;27.10;62.80;;;27.75;40.92;98212.78;5026014;27;123577;-72
2022/07/25 06:11:12;;;;;;;9.37;7.87;;;27.10;62.50;;;27.81;40.54;98206.56;5038064;27;114348;-71
2022/07/25 06:13:39;;;;;;;8.57;7.17;;;27.20;62.00;;;27.85;40.52;98210.13;5029275;27;113933;-73
2022/07/25 06:16:05;;;;;;;8.43;7.53;;;27.30;62.00;;;27.93;40.13;98203.03;5031520;27;124007;-72
2022/07/25 06:18:32;;;;;;;8.50;7.17;;;27.30;61.70;;;28.01;40.26;98195.13;5043108;27;123821;-71
2022/07/25 06:20:58;;;;;;;8.87;7.70;;;27.40;61.50;;;28.10;39.95;98204.63;5027943;27;114369;-72
2022/07/25 06:23:25;;;;;;;8.53;7.43;;;27.40;61.30;;;28.18;39.81;98194.69;5030826;27;114030;-71
2022/07/25 06:25:51;;;;;;;12.10;8.27;;;27.50;61.10;;;28.26;39.77;98203.00;5030924;27;124084;-71
2022/07/25 06:28:18;;;;;;;9.63;7.77;;;27.50;60.80;;;28.33;39.55;98200.75;5043497;27;123352;-72
2022/07/25 06:30:45;;;;;;;10.77;7.70;;;27.60;60.70;;;28.41;39.34;98195.69;5031616;27;115242;-71
2022/07/25 06:33:12;;;;;;;10.00;8.03;;;27.70;60.50;;;28.48;39.27;98189.84;5031403;27;115822;-71
2022/07/25 06:35:39;;;;;;;8.53;7.63;;;27.80;60.30;;;28.55;38.90;98191.66;5024946;27;123116;-72
2022/07/25 06:38:05;;;;;;;9.10;7.67;;;27.80;60.00;;;28.62;38.92;98195.13;5027469;27;123798;-72
2022/07/25 06:40:32;;;;;;;8.57;7.47;;;27.90;59.90;;;28.69;38.84;98187.63;5024891;27;114293;-72
2022/07/25 06:42:58;;;;;;;7.90;7.10;;;28.00;59.80;;;28.76;38.81;98188.22;5025385;27;114081;-72
2022/07/25 06:45:25;;;;;;;10.60;9.10;;;28.10;59.70;;;28.85;38.56;98187.56;5028106;27;122978;-72
2022/07/25 06:47:51;;;;;;;16.40;8.50;;;28.20;59.50;;;28.93;38.40;98183.25;5030602;27;124562;-72
2022/07/25 06:50:18;;;;;;;9.10;7.57;;;28.20;59.30;;;29.02;38.33;98186.25;5028262;27;114567;-72
2022/07/25 06:52:45;;;;;;;10.17;8.80;;;28.30;59.20;;;29.11;38.36;98190.50;5039774;27;113949;-71
2022/07/25 06:55:13;;;;;;;7.80;6.63;;;28.40;59.10;;;29.19;38.45;98186.19;5047115;27;124704;-71
2022/07/25 06:57:41;;;;;;;9.60;7.47;;;28.50;59.00;;;29.28;38.36;98191.97;5041464;27;123692;-71
2022/07/25 07:00:12;;;;;;;9.97;7.40;;;28.50;59.00;;;29.34;37.99;98193.03;5045603;27;114155;-71
2022/07/25 07:02:51;;;;;;;10.73;8.37;;;28.60;58.90;;;29.42;37.98;98194.41;5043109;27;113908;-71
2022/07/25 07:05:18;;;;;;;9.03;7.20;;;28.70;58.80;;;29.50;37.29;98187.22;5045109;27;124162;-72
2022/07/25 07:07:44;;;;;;;7.77;7.07;;;28.70;58.10;;;29.58;37.22;98189.81;5048393;27;122918;-71
2022/07/25 07:10:11;;;;;;;9.10;8.00;;;28.90;57.90;;;29.66;37.28;98194.06;5046588;27;114163;-71
2022/07/25 07:12:37;;;;;;;10.93;7.00;;;28.90;57.50;;;29.73;36.27;98182.44;5046844;27;113947;-73
2022/07/25 07:15:04;;;;;;;9.47;7.50;;;29.00;56.80;;;29.76;36.19;98175.81;5049918;27;124659;-71
2022/07/25 07:17:31;;;;;;;8.70;7.47;;;29.00;56.60;;;29.83;36.25;98181.28;5050547;27;122722;-71
2022/07/25 07:19:57;;;;;;;10.07;8.10;;;29.10;56.40;;;29.87;36.54;98176.25;5046625;27;115239;-71
2022/07/25 07:22:24;;;;;;;8.73;7.40;;;29.10;56.30;;;29.97;36.47;98174.31;5046460;27;115350;-72
2022/07/25 07:24:51;;;;;;;7.90;7.10;;;29.20;56.30;;;30.04;36.30;98185.47;5047169;27;123998;-72
2022/07/25 07:27:17;;;;;;;9.53;8.53;;;29.30;56.20;;;30.12;36.20;98180.31;5049024;27;124478;-72
2022/07/25 07:29:44;;;;;;;10.20;8.07;;;29.40;56.20;;;30.21;36.18;98171.06;5047097;27;114453;-72
2022/07/25 07:32:10;;;;;;;11.93;8.67;;;29.40;56.30;;;30.30;36.34;98179.72;5039173;27;113787;-72
2022/07/25 07:34:37;;;;;;;8.27;7.47;;;29.60;56.30;;;30.37;36.61;98170.91;5047003;27;123989;-73
2022/07/25 07:37:03;;;;;;;9.47;7.70;;;29.60;56.40;;;30.45;36.45;98171.47;5046421;27;124420;-72
2022/07/25 07:39:30;;;;;;;10.00;8.47;;;29.70;56.50;;;30.52;36.11;98165.47;5046307;27;114302;-72
2022/07/25 07:41:56;;;;;;;9.60;8.60;;;29.70;56.50;;;30.59;36.62;98165.22;5047156;27;113943;-72
2022/07/25 07:44:23;;;;;;;9.83;8.47;;;29.90;56.60;;;30.65;36.61;98160.50;5048464;27;122969;-72
2022/07/25 07:46:49;;;;;;;11.10;8.77;;;29.90;56.60;;;30.72;36.45;98165.16;5042483;27;125248;-72
2022/07/25 07:49:16;;;;;;;10.50;9.20;;;30.00;56.60;;;30.79;36.23;98156.34;5047322;27;114409;-72
2022/07/25 07:51:42;;;;;;;9.80;7.83;;;30.00;56.60;;;30.86;36.36;98158.16;5039621;27;113465;-71
2022/07/25 07:56:54;;;;;;;9.17;7.97;;;30.20;56.50;;;30.99;36.50;98153.16;5036259;27;123259;-72
2022/07/25 07:59:20;;;;;;;10.70;9.60;;;30.20;56.40;;;31.04;35.91;98146.84;5047094;27;114482;-72
2022/07/25 08:01:47;;;;;;;9.23;7.50;;;30.30;56.40;;;31.12;36.23;98145.31;5049594;27;114284;-72
2022/07/25 08:04:14;;;;;;;9.43;8.20;;;30.40;56.20;;;31.19;36.07;98147.06;5045291;27;124333;-73
2022/07/25 08:06:42;;;;;;;11.93;8.50;;;30.40;55.90;;;31.25;35.95;98151.72;5048369;27;122899;-74
2022/07/25 08:09:08;;;;;;;9.80;8.80;;;30.50;55.80;;;31.32;35.45;98158.38;5048433;27;114515;-72
2022/07/25 08:11:35;;;;;;;10.17;8.57;;;30.60;55.70;;;31.39;35.13;98147.50;5047131;27;115136;-73
2022/07/25 08:14:03;;;;;;;9.30;7.90;;;30.60;55.40;;;31.45;35.29;98139.13;5046219;27;124846;-72
2022/07/25 08:16:29;;;;;;;12.23;8.27;;;30.70;55.10;;;31.53;35.16;98145.34;5046483;27;124746;-73
2022/07/25 08:18:56;;;;;;;10.67;8.00;;;30.80;54.90;;;31.60;34.81;98147.91;5046733;27;114516;-72
2022/07/25 08:21:22;;;;;;;9.80;8.30;;;30.90;54.60;;;31.64;34.78;98149.31;5044576;27;114229;-72
2022/07/25 08:23:49;;;;;;;8.20;7.40;;;30.90;54.50;;;31.71;34.44;98147.47;5047948;27;123435;-72
2022/07/25 08:26:15;;;;;;;10.57;8.97;;;31.00;54.20;;;31.74;34.78;98146.50;5046940;27;125072;-72
2022/07/25 08:28:42;;;;;;;8.40;7.47;;;31.00;53.90;;;31.79;34.33;98140.19;5048604;27;114149;-71
2022/07/25 08:31:09;;;;;;;14.73;8.30;;;31.10;53.80;;;31.83;34.67;98143.66;5036583;27;114067;-71
2022/07/25 08:33:35;;;;;;;9.30;8.40;;;31.20;53.70;;;31.87;34.48;98135.75;5047973;27;124021;-71
2022/07/25 08:36:02;;;;;;;9.57;8.20;;;31.20;53.60;;;31.92;34.60;98138.00;5047535;27;124389;-71
2022/07/25 08:38:29;;;;;;;8.80;7.90;;;31.30;53.60;;;32.01;34.34;98138.00;5053003;27;114592;-71
2022/07/25 08:40:57;;;;;;;10.80;8.73;;;31.30;53.50;;;32.08;33.73;98139.75;5052790;27;113919;-71
2022/07/25 08:43:23;;;;;;;8.63;7.73;;;31.40;53.30;;;32.16;33.57;98151.69;5049415;27;124411;-71
2022/07/25 08:45:53;;;;;;;8.50;7.60;;;31.50;53.00;;;32.20;32.34;98147.41;5047530;27;124637;-72
2022/07/25 08:48:23;;;;;;;9.50;8.60;;;31.50;51.40;;;32.25;32.14;98148.84;5050142;27;114520;-72
2022/07/25 08:50:51;;;;;;;8.80;7.10;;;31.60;50.50;;;32.28;31.56;98142.94;5038314;27;113925;-72
2022/07/25 08:53:20;;;;;;;9.60;7.13;;;31.60;49.80;;;32.32;31.15;98131.34;5048351;27;123172;-72
2022/07/25 08:55:47;;;;;;;8.80;6.63;;;31.70;49.30;;;32.37;31.08;98138.50;5048100;27;123892;-71
2022/07/25 08:58:17;;;;;;;7.93;7.13;;;31.70;49.10;;;32.41;31.06;98139.94;5048522;27;115426;-72
2022/07/25 09:00:45;;;;;;;8.00;7.20;;;31.80;49.00;;;32.45;31.07;98134.84;5048222;27;114712;-72
2022/07/25 09:03:12;;;;;;;8.50;7.60;;;31.80;49.00;;;32.51;31.35;98137.88;5052284;27;124045;-72
2022/07/25 09:05:39;;;;;;;7.67;6.97;;;31.90;48.80;;;32.53;31.06;98135.34;5043483;27;124548;-72
2022/07/25 09:08:17;;;;;;;10.23;7.73;;;31.90;48.40;;;32.56;30.48;98117.22;5043017;27;113493;-72
2022/07/25 09:10:51;;;;;;;8.80;7.90;;;32.00;48.20;;;32.62;30.68;98125.94;5051077;27;112299;-72
2022/07/25 09:13:20;;;;;;;8.97;7.37;;;32.00;48.10;;;32.66;30.03;98120.88;5049055;27;124143;-72
2022/07/25 09:15:55;;;;;;;10.83;7.37;;;32.00;47.50;;;32.68;30.08;98119.13;5048021;27;124205;-72
2022/07/25 09:18:24;;;;;;;8.33;7.50;;;32.10;47.50;;;32.72;30.36;98110.34;5053104;27;114766;-72
2022/07/25 09:21:02;;;;;;;9.13;6.80;;;32.10;47.30;;;32.76;29.96;98119.59;5048105;27;113960;-72
2022/07/25 09:23:40;;;;;;;9.07;7.90;;;32.20;46.90;;;32.80;29.66;98114.47;5048965;27;124141;-72
2022/07/25 09:26:14;;;;;;;8.20;7.30;;;32.20;46.30;;;32.84;29.77;98123.69;5048952;27;123806;-72
2022/07/25 09:29:03;;;;;;;9.70;7.63;;;32.20;46.10;;;32.87;29.60;98114.16;5047767;27;114006;-72
2022/07/25 09:31:41;;;;;;;8.20;7.00;;;32.30;46.00;;;32.94;29.13;98108.09;5029121;28;113691;-72
2022/07/25 09:34:32;;;;;;;9.30;7.43;;;32.30;45.70;;;32.97;29.31;98106.34;5012934;28;124108;-72
2022/07/25 09:37:26;;;;;;;9.30;7.17;;;32.40;45.80;;;33.00;29.50;98119.69;5003599;28;123087;-72
2022/07/25 09:39:56;;;;;;;9.73;7.80;;;32.40;45.50;;;33.02;28.77;98110.63;5005025;28;114297;-72
2022/07/25 09:42:36;;;;;;;8.73;7.83;;;32.50;45.10;;;33.03;28.54;98110.16;5012461;28;113558;-72
2022/07/25 09:45:16;;;;;;;8.30;6.97;;;32.50;44.40;;;33.06;28.71;98106.31;5021935;28;124005;-72
2022/07/25 09:48:06;;;;;;;8.97;8.07;;;32.50;44.60;;;33.10;28.82;98109.00;5027364;28;123600;-72
2022/07/25 09:50:35;;;;;;;9.73;7.20;;;32.60;44.70;;;33.17;28.78;98114.41;5026878;28;114715;-72
2022/07/25 09:53:02;;;;;;;7.80;7.00;;;32.60;44.70;;;33.21;28.23;98110.09;5007990;28;115121;-72
2022/07/25 09:55:36;;;;;;;9.67;7.30;;;32.70;44.30;;;33.24;28.63;98101.81;5027384;28;124045;-72
2022/07/25 09:58:15;;;;;;;8.90;7.77;;;32.70;44.30;;;33.27;28.59;98100.84;5026038;28;123820;-72
2022/07/25 10:01:01;;;;;;;8.13;7.33;;;32.70;44.30;;;33.28;28.83;98111.00;5011955;28;113902;-73
2022/07/25 10:03:58;;;;;;;8.67;7.77;;;32.70;44.60;;;33.27;28.91;98095.91;5020461;28;113392;-73
2022/07/25 10:06:38;;;;;;;9.13;8.23;;;32.80;44.50;;;33.30;28.76;98092.06;5006683;28;124494;-73
2022/07/25 10:09:16;;;;;;;8.00;7.07;;;32.80;44.30;;;33.35;28.45;98111.47;5028816;27;123902;-73
2022/07/25 10:12:14;;;;;;;9.23;7.50;;;32.80;44.30;;;33.35;28.63;98094.28;5049654;27;114227;-73
2022/07/25 10:14:43;;;;;;;8.67;7.70;;;32.90;44.20;;;33.41;28.78;98086.59;5049824;27;113942;-73
2022/07/25 10:17:27;;;;;;;8.33;7.53;;;32.90;44.30;;;33.42;28.69;98084.53;5045617;27;124058;-73